Time;durP1;ratioP1;P1;durP2;ratioP2;P2;SDS_P1;SDS_P2;PMS_P1;PMS_P2;Temp;Humidity;BMP_temperature;BMP_pressure;BME280_temperature;BME280_humidity;BME280_pressure;Samples;Min_cycle;Max_cycle;Signal;HPM_P1;HPM_P2
2022/10/11 00:00:51;;;;;;;6.93;4.32;;;10.00;99.90;;;;;;5096989;28;20595;-78
2022/10/11 00:03:17;;;;;;;8.55;4.40;;;9.90;99.90;;;;;;5094967;28;20571;-80
2022/10/11 00:05:44;;;;;;;17.42;4.82;;;10.00;99.90;;;;;;5097859;28;20181;-80
2022/10/11 00:08:11;;;;;;;6.35;4.30;;;9.90;99.90;;;;;;5096051;28;20201;-80
2022/10/11 00:10:36;;;;;;;10.18;5.18;;;9.70;99.90;;;;;;5096923;28;20172;-78
2022/10/11 00:13:03;;;;;;;14.55;5.43;;;9.60;99.90;;;;;;5095681;28;20162;-79
2022/10/11 00:15:28;;;;;;;17.17;5.55;;;9.80;99.90;;;;;;5095791;28;20205;-80
2022/10/11 00:17:54;;;;;;;11.63;5.10;;;9.70;99.90;;;;;;5094626;28;20260;-91
2022/10/11 00:20:20;;;;;;;8.50;3.70;;;9.90;99.90;;;;;;5095758;28;20165;-81
2022/10/11 00:22:46;;;;;;;8.30;4.38;;;9.60;99.90;;;;;;5096646;28;20166;-80
2022/10/11 00:25:13;;;;;;;6.35;5.05;;;9.70;99.90;;;;;;5098046;28;20186;-79
2022/10/11 00:27:38;;;;;;;8.63;4.50;;;9.50;99.90;;;;;;5097589;28;20741;-80
2022/10/11 00:30:07;;;;;;;11.10;5.03;;;9.50;99.90;;;;;;5093022;28;20209;-80
2022/10/11 00:32:34;;;;;;;13.82;4.43;;;9.60;99.90;;;;;;5097232;28;20634;-80
2022/10/11 00:35:05;;;;;;;9.98;4.78;;;9.70;99.90;;;;;;5095095;28;20240;-80
2022/10/11 00:37:34;;;;;;;10.80;5.70;;;9.60;99.90;;;;;;5096488;28;20166;-80
2022/10/11 00:39:59;;;;;;;6.43;4.43;;;9.50;99.90;;;;;;5094491;28;20174;-79
2022/10/11 00:42:25;;;;;;;12.48;5.38;;;9.50;99.90;;;;;;5093736;28;20185;-79
2022/10/11 00:45:11;;;;;;;6.45;4.13;;;9.60;99.90;;;;;;5093933;28;20190;-79
2022/10/11 00:47:37;;;;;;;14.52;5.30;;;9.60;99.90;;;;;;5091902;28;20226;-83
2022/10/11 00:50:03;;;;;;;14.90;5.25;;;9.60;99.90;;;;;;5093186;28;20166;-86
2022/10/11 00:52:33;;;;;;;16.58;5.43;;;9.60;99.90;;;;;;5092156;28;20252;-80
2022/10/11 00:55:07;;;;;;;14.75;5.38;;;9.50;99.90;;;;;;5094033;28;20683;-80
2022/10/11 00:57:37;;;;;;;8.88;4.70;;;9.40;99.90;;;;;;5095775;28;20249;-78
2022/10/11 01:00:08;;;;;;;16.90;4.85;;;9.50;99.90;;;;;;5115447;28;20150;-80
2022/10/11 01:02:33;;;;;;;11.55;4.63;;;9.50;99.90;;;;;;5103975;28;20193;-80
2022/10/11 01:05:00;;;;;;;13.55;5.43;;;9.40;99.90;;;;;;5093050;28;20324;-80
2022/10/11 01:07:30;;;;;;;14.27;4.70;;;9.50;99.90;;;;;;5095093;28;20170;-80
2022/10/11 01:09:57;;;;;;;7.35;5.57;;;9.40;99.90;;;;;;5095688;28;20180;-80
2022/10/11 01:12:25;;;;;;;14.82;5.18;;;9.40;99.90;;;;;;5096065;28;20635;-80
2022/10/11 01:15:12;;;;;;;16.63;6.40;;;9.60;99.90;;;;;;5096467;28;20236;-80
2022/10/11 01:17:55;;;;;;;12.40;5.47;;;9.60;99.90;;;;;;5097004;28;20227;-80
2022/10/11 01:20:21;;;;;;;11.70;5.90;;;9.70;99.90;;;;;;5096334;28;20654;-91
2022/10/11 01:23:01;;;;;;;13.57;4.65;;;9.50;99.90;;;;;;5094682;28;20180;-81
2022/10/11 01:26:03;;;;;;;22.63;5.45;;;9.40;99.90;;;;;;5094727;28;20194;-80
2022/10/11 01:28:39;;;;;;;15.00;5.40;;;9.60;99.90;;;;;;5094985;28;20176;-80
2022/10/11 01:31:24;;;;;;;11.20;5.20;;;9.60;99.90;;;;;;5094287;28;20534;-80
2022/10/11 01:33:59;;;;;;;13.10;5.68;;;9.60;99.90;;;;;;5093866;28;20205;-81
2022/10/11 01:36:41;;;;;;;19.58;5.80;;;9.60;99.90;;;;;;5094143;28;20212;-90
2022/10/11 01:39:15;;;;;;;12.75;5.18;;;9.70;99.90;;;;;;5095936;28;20590;-81
2022/10/11 01:41:48;;;;;;;9.23;5.22;;;9.80;99.90;;;;;;5094750;28;20182;-80
2022/10/11 01:44:15;;;;;;;15.40;5.03;;;9.60;99.90;;;;;;5095917;28;20166;-81
2022/10/11 01:46:41;;;;;;;14.98;5.68;;;9.50;99.90;;;;;;5094284;28;20259;-81
2022/10/11 01:49:07;;;;;;;21.08;5.32;;;9.40;99.90;;;;;;5093895;28;20166;-90
2022/10/11 01:51:37;;;;;;;8.75;5.18;;;9.30;99.90;;;;;;5095311;28;20174;-80
2022/10/11 01:54:32;;;;;;;9.10;4.38;;;9.20;99.90;;;;;;5094029;28;20206;-81
2022/10/11 01:57:24;;;;;;;10.88;5.30;;;9.00;99.90;;;;;;5095433;28;20216;-80
2022/10/11 02:00:06;;;;;;;6.80;4.65;;;9.10;99.90;;;;;;5093657;28;20577;-80
2022/10/11 02:02:50;;;;;;;12.65;5.50;;;9.10;99.90;;;;;;5095095;28;20165;-80
2022/10/11 02:05:46;;;;;;;6.88;4.93;;;9.10;99.90;;;;;;5095100;28;20251;-84
2022/10/11 02:08:28;;;;;;;15.43;5.63;;;9.10;99.90;;;;;;5093829;28;20235;-81
2022/10/11 02:11:03;;;;;;;13.73;5.97;;;9.20;99.90;;;;;;5094440;28;20192;-80
2022/10/11 02:13:45;;;;;;;10.18;5.40;;;9.20;99.90;;;;;;5093557;28;20170;-80
2022/10/11 02:16:13;;;;;;;19.85;5.25;;;9.20;99.90;;;;;;5093787;28;20239;-89
2022/10/11 02:18:46;;;;;;;12.25;5.03;;;9.00;99.90;;;;;;5094425;28;20193;-80
2022/10/11 02:21:15;;;;;;;21.65;6.57;;;8.90;99.90;;;;;;5094948;28;20162;-80
2022/10/11 02:23:52;;;;;;;10.60;5.22;;;8.90;99.90;;;;;;5094572;28;20719;-80
2022/10/11 02:26:19;;;;;;;9.82;5.40;;;8.90;99.90;;;;;;5094575;28;20222;-80
2022/10/11 02:28:48;;;;;;;12.48;6.50;;;9.00;99.90;;;;;;5093470;28;20162;-80
2022/10/11 02:31:15;;;;;;;10.38;5.35;;;9.00;99.90;;;;;;5093819;28;20823;-80
2022/10/11 02:33:49;;;;;;;10.05;4.53;;;8.80;99.90;;;;;;5094423;28;20201;-80
2022/10/11 02:36:40;;;;;;;17.55;5.47;;;8.60;99.90;;;;;;5094951;28;20262;-80
2022/10/11 02:39:33;;;;;;;10.38;5.47;;;8.80;99.90;;;;;;5082093;28;20184;-80
2022/10/11 02:42:03;;;;;;;10.75;5.05;;;8.90;99.90;;;;;;5094530;28;20170;-82
2022/10/11 02:44:37;;;;;;;16.80;5.63;;;8.70;99.90;;;;;;5094252;28;20264;-81
2022/10/11 02:47:03;;;;;;;13.32;5.43;;;8.80;99.90;;;;;;5093961;28;20722;-80
2022/10/11 02:49:30;;;;;;;13.23;5.35;;;9.00;99.90;;;;;;5093083;28;20530;-80
2022/10/11 02:51:56;;;;;;;8.25;5.43;;;9.00;99.90;;;;;;5094525;28;20174;-80
2022/10/11 02:54:23;;;;;;;13.80;4.53;;;9.00;99.90;;;;;;5092707;28;20262;-81
2022/10/11 02:56:49;;;;;;;12.13;5.22;;;8.90;99.90;;;;;;5094066;28;20256;-80
2022/10/11 02:59:14;;;;;;;6.45;5.50;;;8.90;99.90;;;;;;5092911;28;20624;-80
2022/10/11 03:01:40;;;;;;;10.38;4.85;;;8.80;99.90;;;;;;5092564;28;20170;-81
2022/10/11 03:04:05;;;;;;;13.88;5.30;;;9.00;99.90;;;;;;5094037;28;20218;-87
2022/10/11 03:06:31;;;;;;;12.30;5.60;;;9.10;99.90;;;;;;5092403;28;20181;-80
2022/10/11 03:08:57;;;;;;;10.20;5.43;;;9.20;99.90;;;;;;5092445;28;20170;-80
2022/10/11 03:11:22;;;;;;;9.00;5.03;;;8.90;99.90;;;;;;5092340;28;20672;-87
2022/10/11 03:13:48;;;;;;;15.15;5.40;;;8.90;99.90;;;;;;5092375;28;20194;-80
2022/10/11 03:16:13;;;;;;;10.80;5.38;;;8.80;99.90;;;;;;5092122;28;20193;-81
2022/10/11 03:18:39;;;;;;;10.82;5.32;;;8.90;99.90;;;;;;5092465;28;20221;-84
2022/10/11 03:21:04;;;;;;;9.30;4.97;;;8.70;99.90;;;;;;5093591;28;20684;-81
2022/10/11 03:23:30;;;;;;;10.88;4.97;;;8.60;99.90;;;;;;5093319;28;20166;-82
2022/10/11 03:25:56;;;;;;;13.38;4.85;;;8.60;99.90;;;;;;5093587;28;20189;-81
2022/10/11 03:28:21;;;;;;;22.90;6.15;;;8.70;99.90;;;;;;5092798;28;20219;-80
2022/10/11 03:30:48;;;;;;;9.55;5.40;;;8.60;99.90;;;;;;5101916;28;20154;-80
2022/10/11 03:33:14;;;;;;;10.13;5.53;;;8.70;99.90;;;;;;5114824;28;20165;-79
2022/10/11 03:35:39;;;;;;;14.13;5.93;;;8.80;99.90;;;;;;5097696;28;20213;-80
2022/10/11 03:38:05;;;;;;;8.77;5.10;;;8.60;99.90;;;;;;5092496;28;20162;-80
2022/10/11 03:40:31;;;;;;;6.18;5.03;;;8.50;99.90;;;;;;5092048;28;20219;-81
2022/10/11 03:42:57;;;;;;;19.70;5.93;;;8.60;99.90;;;;;;5093504;28;20174;-81
2022/10/11 03:45:23;;;;;;;15.45;5.75;;;8.70;99.90;;;;;;5091933;28;20288;-80
2022/10/11 03:47:49;;;;;;;11.75;5.55;;;8.70;99.90;;;;;;5093060;28;20249;-80
2022/10/11 03:50:14;;;;;;;10.82;5.13;;;8.70;99.90;;;;;;5093826;28;20175;-80
2022/10/11 03:52:40;;;;;;;11.05;5.63;;;8.80;99.90;;;;;;5093726;28;20169;-80
2022/10/11 03:55:06;;;;;;;9.65;5.82;;;8.60;99.90;;;;;;5092099;28;20254;-83
2022/10/11 03:57:32;;;;;;;13.60;4.95;;;8.50;99.90;;;;;;5092149;28;20177;-80
2022/10/11 03:59:57;;;;;;;13.32;5.57;;;8.50;99.90;;;;;;5093158;28;20162;-80
2022/10/11 04:02:23;;;;;;;11.10;5.28;;;8.60;99.90;;;;;;5093743;28;20165;-80
2022/10/11 04:04:49;;;;;;;21.58;7.05;;;8.60;99.90;;;;;;5091969;28;20166;-80
2022/10/11 04:07:14;;;;;;;10.70;4.93;;;8.50;99.90;;;;;;5092977;28;20533;-80
2022/10/11 04:09:40;;;;;;;15.50;5.47;;;8.50;99.90;;;;;;5091699;28;20226;-88
2022/10/11 04:12:06;;;;;;;6.50;4.70;;;8.60;99.90;;;;;;5092966;28;20192;-82
2022/10/11 04:14:32;;;;;;;8.57;5.25;;;8.40;99.90;;;;;;5091586;28;20213;-80
2022/10/11 04:16:57;;;;;;;10.40;5.13;;;8.50;99.90;;;;;;5092540;28;20245;-80
2022/10/11 04:19:23;;;;;;;8.98;4.97;;;8.50;99.90;;;;;;5091946;28;20169;-80
2022/10/11 04:21:48;;;;;;;16.50;5.63;;;8.50;99.90;;;;;;5093125;28;20166;-81
2022/10/11 04:24:14;;;;;;;8.98;5.93;;;8.60;99.90;;;;;;5093125;28;20166;-81
2022/10/11 04:26:39;;;;;;;8.55;5.28;;;8.40;99.90;;;;;;5091549;28;20213;-81
2022/10/11 04:29:05;;;;;;;6.35;4.88;;;8.50;99.90;;;;;;5092799;28;20165;-80
2022/10/11 04:31:31;;;;;;;17.27;5.68;;;8.60;99.90;;;;;;5091504;28;20248;-80
2022/10/11 04:33:56;;;;;;;9.98;5.45;;;8.30;99.90;;;;;;5091369;28;20228;-80
2022/10/11 04:36:23;;;;;;;18.05;5.68;;;8.30;99.90;;;;;;5091376;28;20197;-84
2022/10/11 04:38:49;;;;;;;15.45;6.20;;;8.20;99.90;;;;;;5092913;28;20162;-90
2022/10/11 04:41:15;;;;;;;10.52;4.55;;;8.40;99.90;;;;;;5094146;28;20183;-83
2022/10/11 04:43:40;;;;;;;10.32;5.20;;;8.30;99.90;;;;;;5097284;28;20211;-80
2022/10/11 04:46:07;;;;;;;7.20;5.47;;;8.30;99.90;;;;;;5095666;28;20189;-81
2022/10/11 04:48:32;;;;;;;15.35;5.50;;;8.30;99.90;;;;;;5096517;28;20162;-81
2022/10/11 04:50:58;;;;;;;10.05;6.28;;;8.60;99.90;;;;;;5095736;28;20180;-82
2022/10/11 04:53:24;;;;;;;10.75;5.40;;;8.70;99.90;;;;;;5097501;28;20557;-81
2022/10/11 04:55:59;;;;;;;11.40;5.55;;;8.70;99.90;;;;;;5096152;28;20240;-80
2022/10/11 04:58:27;;;;;;;8.35;5.47;;;8.50;99.90;;;;;;5097030;28;20173;-80
2022/10/11 05:00:52;;;;;;;14.45;5.97;;;8.50;99.90;;;;;;5097216;28;20567;-88
2022/10/11 05:03:18;;;;;;;8.43;5.60;;;8.50;99.90;;;;;;5097045;28;20219;-82
2022/10/11 05:05:44;;;;;;;20.77;5.22;;;8.50;99.90;;;;;;5095455;28;20204;-88
2022/10/11 05:08:10;;;;;;;17.75;5.55;;;8.60;99.90;;;;;;5094476;28;20162;-80
2022/10/11 05:10:36;;;;;;;6.90;5.22;;;8.40;99.90;;;;;;5095430;28;20170;-90
2022/10/11 05:13:01;;;;;;;15.60;5.50;;;8.40;99.90;;;;;;5094743;28;20165;-83
2022/10/11 05:15:27;;;;;;;9.98;4.95;;;8.60;99.90;;;;;;5095624;28;20739;-80
2022/10/11 05:17:52;;;;;;;7.45;5.25;;;8.60;99.90;;;;;;5094189;28;20295;-81
2022/10/11 05:20:18;;;;;;;8.10;5.05;;;8.70;99.90;;;;;;5095509;28;20647;-80
2022/10/11 05:22:44;;;;;;;20.00;5.40;;;8.60;99.90;;;;;;5095829;28;20162;-81
2022/10/11 05:25:09;;;;;;;9.40;5.53;;;8.40;99.90;;;;;;5095434;28;20194;-80
2022/10/11 05:27:35;;;;;;;13.82;5.82;;;8.40;99.90;;;;;;5094439;28;20162;-80
2022/10/11 05:30:00;;;;;;;15.23;5.53;;;8.40;99.90;;;;;;5095329;28;20182;-90
2022/10/11 05:32:26;;;;;;;15.00;4.68;;;8.60;99.90;;;;;;5095871;28;20176;-83
2022/10/11 05:34:51;;;;;;;16.15;4.93;;;8.70;99.90;;;;;;5093829;28;20212;-80
2022/10/11 05:37:17;;;;;;;8.02;6.22;;;8.70;99.90;;;;;;5094909;28;20223;-80
2022/10/11 05:39:43;;;;;;;13.98;5.55;;;8.70;99.90;;;;;;5095763;28;20223;-79
2022/10/11 05:42:08;;;;;;;14.85;5.55;;;8.60;99.90;;;;;;5094119;28;20173;-81
2022/10/11 05:44:34;;;;;;;8.15;5.43;;;8.50;99.90;;;;;;5094199;28;20166;-81
2022/10/11 05:46:59;;;;;;;10.48;6.32;;;8.40;99.90;;;;;;5095401;28;20546;-80
2022/10/11 05:49:25;;;;;;;10.20;6.18;;;8.60;99.90;;;;;;5093759;28;20174;-80
2022/10/11 05:51:50;;;;;;;11.77;5.40;;;8.70;99.90;;;;;;5094215;28;20162;-80
2022/10/11 05:54:16;;;;;;;11.20;5.63;;;8.70;99.90;;;;;;5094946;28;20213;-80
2022/10/11 05:56:42;;;;;;;6.40;5.70;;;8.70;99.90;;;;;;5094801;28;20692;-79
2022/10/11 05:59:07;;;;;;;15.07;5.55;;;8.80;99.90;;;;;;5095026;28;20177;-80
2022/10/11 06:01:33;;;;;;;18.30;6.07;;;9.00;99.90;;;;;;5095949;28;20237;-81
2022/10/11 06:03:59;;;;;;;10.93;5.13;;;9.00;99.90;;;;;;5099376;28;20173;-82
2022/10/11 06:06:25;;;;;;;16.52;5.75;;;9.00;99.90;;;;;;5108910;28;20207;-79
2022/10/11 06:08:50;;;;;;;15.75;5.93;;;8.90;99.90;;;;;;5112050;28;20178;-80
2022/10/11 06:11:24;;;;;;;12.38;6.35;;;9.00;99.90;;;;;;5096602;28;20253;-80
2022/10/11 06:13:56;;;;;;;12.23;6.07;;;8.80;99.90;;;;;;5095392;28;20288;-84
2022/10/11 06:16:21;;;;;;;21.50;6.15;;;8.60;99.90;;;;;;5093767;28;20289;-80
2022/10/11 06:18:47;;;;;;;21.10;6.50;;;8.60;99.90;;;;;;5094167;28;20252;-80
2022/10/11 06:21:14;;;;;;;10.07;5.32;;;8.80;99.90;;;;;;5093305;28;20499;-80
2022/10/11 06:23:39;;;;;;;19.42;6.03;;;8.70;99.90;;;;;;5097253;28;20202;-79
2022/10/11 06:26:07;;;;;;;14.23;7.00;;;8.70;99.90;;;;;;5093520;28;20528;-80
2022/10/11 06:28:34;;;;;;;14.57;6.72;;;8.90;99.90;;;;;;5095132;28;20291;-92
2022/10/11 06:31:01;;;;;;;13.82;6.30;;;9.00;99.90;;;;;;5094436;28;20168;-80
2022/10/11 06:33:27;;;;;;;15.05;6.13;;;8.90;99.90;;;;;;5092814;28;20186;-80
2022/10/11 06:35:58;;;;;;;15.07;6.60;;;9.10;99.90;;;;;;5093041;28;20205;-83
2022/10/11 06:38:24;;;;;;;11.98;6.57;;;9.30;99.90;;;;;;5093118;28;20162;-81
2022/10/11 06:40:49;;;;;;;18.40;7.72;;;9.50;99.90;;;;;;5092725;28;20184;-82
2022/10/11 06:43:15;;;;;;;32.33;8.43;;;9.50;99.90;;;;;;5093124;28;20628;-89
2022/10/11 06:45:40;;;;;;;25.25;7.22;;;9.40;99.90;;;;;;5093064;28;20197;-89
2022/10/11 06:48:06;;;;;;;16.83;7.20;;;9.40;99.90;;;;;;5094364;28;20162;-81
2022/10/11 06:50:31;;;;;;;15.43;6.35;;;9.50;99.90;;;;;;5094695;28;20577;-82
2022/10/11 06:52:58;;;;;;;24.77;6.65;;;9.40;99.90;;;;;;5092856;28;20192;-81
2022/10/11 06:55:24;;;;;;;22.92;7.70;;;9.50;99.90;;;;;;5092688;28;20282;-87
2022/10/11 06:57:49;;;;;;;17.08;7.60;;;9.70;99.90;;;;;;5095503;28;20170;-89
2022/10/11 07:00:15;;;;;;;13.43;7.65;;;9.90;99.90;;;;;;5093853;28;20189;-81
2022/10/11 07:02:41;;;;;;;29.50;7.57;;;10.00;99.90;;;;;;5093958;28;20204;-83
2022/10/11 07:05:07;;;;;;;14.57;7.00;;;10.00;99.90;;;;;;5094731;28;20194;-85
2022/10/11 07:07:32;;;;;;;11.77;6.00;;;10.00;99.90;;;;;;5092535;28;20166;-83
2022/10/11 07:09:58;;;;;;;21.10;6.75;;;9.90;99.90;;;;;;5091282;28;20177;-83
2022/10/11 07:12:24;;;;;;;9.45;6.38;;;10.10;99.90;;;;;;5091154;28;20265;-83
2022/10/11 07:14:49;;;;;;;19.83;7.70;;;10.40;99.90;;;;;;5092759;28;22069;-83
2022/10/11 07:17:15;;;;;;;12.50;6.13;;;10.70;99.90;;;;;;5092375;28;20243;-83
2022/10/11 07:19:40;;;;;;;13.02;7.10;;;10.90;99.90;;;;;;5092903;28;20177;-83
2022/10/11 07:22:06;;;;;;;23.15;6.50;;;11.20;99.90;;;;;;5092447;28;20265;-82
2022/10/11 07:24:32;;;;;;;20.85;6.65;;;11.50;99.90;;;;;;5092453;28;20227;-81
2022/10/11 07:26:57;;;;;;;24.20;7.18;;;11.60;99.90;;;;;;5092541;28;20603;-81
2022/10/11 07:29:23;;;;;;;14.02;5.95;;;11.70;99.90;;;;;;5092020;28;20165;-81
2022/10/11 07:31:49;;;;;;;17.85;6.40;;;11.80;99.90;;;;;;5092642;28;20252;-81
2022/10/11 07:34:15;;;;;;;10.93;6.30;;;11.90;99.90;;;;;;5093405;28;20205;-83
2022/10/11 07:36:41;;;;;;;25.63;7.43;;;11.40;99.90;;;;;;5092735;28;20208;-80
2022/10/11 07:39:07;;;;;;;12.13;6.60;;;11.20;99.90;;;;;;5092087;28;20189;-81
2022/10/11 07:41:33;;;;;;;26.20;7.38;;;11.30;99.90;;;;;;5093084;28;20205;-81
2022/10/11 07:44:00;;;;;;;14.73;6.38;;;11.40;99.90;;;;;;5091953;28;20722;-80
2022/10/11 07:46:25;;;;;;;10.48;6.97;;;11.00;99.90;;;;;;5091621;28;20561;-80
2022/10/11 07:48:51;;;;;;;10.75;7.22;;;11.30;99.90;;;;;;5093760;28;20170;-81
2022/10/11 07:51:19;;;;;;;15.57;7.18;;;11.50;99.90;;;;;;5092045;28;20520;-83
2022/10/11 07:53:53;;;;;;;25.20;7.20;;;11.80;99.90;;;;;;5091769;28;20619;-81
2022/10/11 07:56:24;;;;;;;12.68;7.30;;;11.80;99.90;;;;;;5091778;28;20181;-80
2022/10/11 07:58:52;;;;;;;12.65;6.80;;;11.90;99.90;;;;;;5093058;28;20166;-80
2022/10/11 08:01:18;;;;;;;13.82;6.55;;;11.90;99.90;;;;;;5091438;28;20262;-81
2022/10/11 08:03:45;;;;;;;27.80;7.55;;;12.10;99.90;;;;;;5091482;28;20190;-81
2022/10/11 08:06:16;;;;;;;15.93;7.45;;;12.20;99.90;;;;;;5091108;28;20190;-81
2022/10/11 08:08:42;;;;;;;16.98;7.70;;;12.20;99.90;;;;;;5092685;28;20165;-82
2022/10/11 08:11:08;;;;;;;16.70;7.45;;;12.40;99.90;;;;;;5091490;28;20181;-83
2022/10/11 08:13:34;;;;;;;10.00;6.22;;;12.50;99.90;;;;;;5091460;28;20158;-81
2022/10/11 08:16:07;;;;;;;16.42;6.72;;;12.50;99.90;;;;;;5092366;28;20566;-90
2022/10/11 08:18:33;;;;;;;24.08;7.68;;;12.50;99.90;;;;;;5091995;28;20205;-85
2022/10/11 08:20:59;;;;;;;12.95;5.90;;;12.60;99.90;;;;;;5091984;28;20235;-81
2022/10/11 08:23:24;;;;;;;12.90;6.47;;;12.80;99.90;;;;;;5093324;28;20215;-81
2022/10/11 08:25:56;;;;;;;13.48;6.65;;;13.00;99.90;;;;;;5093064;28;20186;-90
2022/10/11 08:28:23;;;;;;;14.82;6.15;;;13.00;99.90;;;;;;5092987;28;20174;-82
2022/10/11 08:30:51;;;;;;;9.50;6.53;;;13.00;99.90;;;;;;5093991;28;20166;-82
2022/10/11 08:33:18;;;;;;;13.40;5.93;;;13.00;99.90;;;;;;5092473;28;20177;-93
2022/10/11 08:36:11;;;;;;;21.30;6.68;;;13.20;99.90;;;;;;5046036;28;20210;-92
2022/10/11 08:38:37;;;;;;;14.57;6.78;;;13.30;99.90;;;;;;5100562;28;20248;-84
2022/10/11 08:41:23;;;;;;;11.38;6.45;;;13.40;99.90;;;;;;5105442;28;20162;-80
2022/10/11 08:44:09;;;;;;;13.55;6.35;;;13.60;99.90;;;;;;5112286;28;20187;-80
2022/10/11 08:46:37;;;;;;;11.35;5.22;;;13.70;99.90;;;;;;5078302;28;20225;-80
2022/10/11 08:49:06;;;;;;;11.45;5.00;;;13.70;99.90;;;;;;5093339;28;20166;-80
2022/10/11 08:51:40;;;;;;;14.25;5.53;;;13.80;99.90;;;;;;5092482;28;20256;-81
2022/10/11 08:54:21;;;;;;;9.98;5.43;;;13.80;99.90;;;;;;5093260;28;20685;-93
2022/10/11 08:56:48;;;;;;;12.77;5.30;;;13.90;99.90;;;;;;5091296;28;20190;-80
2022/10/11 08:59:29;;;;;;;16.88;5.22;;;13.90;99.90;;;;;;5094124;28;20166;-80
2022/10/11 09:02:03;;;;;;;15.40;5.07;;;13.90;99.90;;;;;;5091747;28;20231;-80
2022/10/11 09:04:31;;;;;;;12.57;4.80;;;13.80;99.90;;;;;;5093161;28;20153;-81
2022/10/11 09:07:25;;;;;;;16.77;5.25;;;13.80;99.90;;;;;;5090840;28;20173;-80
2022/10/11 09:09:54;;;;;;;17.10;5.40;;;13.90;99.90;;;;;;5090653;28;20299;-81
2022/10/11 09:12:30;;;;;;;12.48;5.75;;;14.10;99.90;;;;;;5090626;28;20532;-81
2022/10/11 09:15:28;;;;;;;13.20;4.82;;;14.20;99.90;;;;;;5090409;28;20217;-80
2022/10/11 09:18:23;;;;;;;9.00;5.35;;;14.20;99.90;;;;;;5090798;28;20174;-81
2022/10/11 09:21:09;;;;;;;13.98;4.53;;;14.30;99.90;;;;;;5090382;28;20166;-80
2022/10/11 09:24:06;;;;;;;10.75;3.22;;;14.20;99.90;;;;;;5092793;28;20161;-81
2022/10/11 09:26:46;;;;;;;15.25;3.72;;;14.30;99.90;;;;;;5092635;28;20205;-80
2022/10/11 09:29:27;;;;;;;9.55;2.97;;;14.50;99.90;;;;;;5095476;28;20651;-82
2022/10/11 09:31:55;;;;;;;10.68;2.75;;;14.50;99.90;;;;;;5095924;28;20170;-80
2022/10/11 09:34:25;;;;;;;4.47;2.33;;;14.60;99.90;;;;;;5094363;28;20219;-94
2022/10/11 09:37:13;;;;;;;6.97;3.00;;;14.90;99.90;;;;;;5094905;28;20196;-80
2022/10/11 09:39:46;;;;;;;8.55;2.08;;;14.70;99.90;;;;;;5096193;28;20165;-80
2022/10/11 09:42:12;;;;;;;6.95;2.40;;;14.50;99.90;;;;;;5096104;28;20215;-80
2022/10/11 09:44:46;;;;;;;11.48;2.72;;;14.70;99.90;;;;;;5096546;28;20162;-81
2022/10/11 09:47:33;;;;;;;8.23;2.47;;;14.80;99.90;;;;;;5094040;28;20215;-80
2022/10/11 09:50:25;;;;;;;9.65;2.50;;;14.80;99.90;;;;;;5096340;28;20165;-80
2022/10/11 09:52:56;;;;;;;8.15;2.60;;;15.10;99.90;;;;;;5092439;28;20208;-81
2022/10/11 09:55:45;;;;;;;13.43;2.45;;;15.20;99.90;;;;;;5093975;28;20208;-81
2022/10/11 09:58:25;;;;;;;11.43;2.42;;;15.10;99.90;;;;;;5095595;28;20198;-84
2022/10/11 10:01:04;;;;;;;10.80;2.33;;;15.10;99.90;;;;;;5094271;28;20185;-81
2022/10/11 10:03:32;;;;;;;7.38;2.10;;;15.30;99.90;;;;;;5094359;28;20177;-80
2022/10/11 10:06:12;;;;;;;4.90;2.03;;;15.20;99.90;;;;;;5096223;28;20198;-81
2022/10/11 10:08:38;;;;;;;12.20;2.13;;;15.20;99.90;;;;;;5094381;28;20169;-80
2022/10/11 10:11:08;;;;;;;8.32;2.17;;;15.20;99.90;;;;;;5095382;28;20188;-81
2022/10/11 10:13:41;;;;;;;14.23;2.85;;;15.20;99.90;;;;;;5094204;28;20511;-81
2022/10/11 10:16:20;;;;;;;5.03;1.90;;;15.30;99.90;;;;;;5095236;28;20182;-81
2022/10/11 10:19:15;;;;;;;12.35;2.38;;;15.30;99.90;;;;;;5094135;28;20170;-80
2022/10/11 10:21:49;;;;;;;14.27;2.10;;;15.10;99.90;;;;;;5093890;28;20531;-81
2022/10/11 10:24:29;;;;;;;10.75;2.90;;;15.20;99.90;;;;;;5093953;28;20193;-80
2022/10/11 10:27:28;;;;;;;10.27;2.15;;;15.30;99.90;;;;;;5096185;28;20254;-93
2022/10/11 10:30:09;;;;;;;11.48;2.75;;;15.30;99.90;;;;;;5096980;28;20166;-91
2022/10/11 10:33:03;;;;;;;7.40;1.90;;;15.50;99.90;;;;;;5098974;28;20174;-93
2022/10/11 10:35:33;;;;;;;10.32;1.85;;;15.50;99.90;;;;;;5096203;28;20236;-93
2022/10/11 10:38:22;;;;;;;6.35;2.58;;;15.50;99.90;;;;;;5095353;28;20174;-93
2022/10/11 10:40:57;;;;;;;10.73;1.92;;;15.30;99.90;;;;;;5089836;28;20184;-88
2022/10/11 10:43:26;;;;;;;6.47;1.70;;;15.40;99.90;;;;;;5093365;28;20211;-80
2022/10/11 10:46:15;;;;;;;7.88;1.92;;;15.50;99.90;;;;;;5093427;28;20213;-80
2022/10/11 10:49:12;;;;;;;10.25;1.85;;;15.40;99.90;;;;;;5093661;28;20590;-81
2022/10/11 10:52:04;;;;;;;14.93;2.10;;;15.40;99.90;;;;;;5093958;28;20655;-85
2022/10/11 10:54:54;;;;;;;4.53;1.60;;;15.30;99.90;;;;;;5093195;28;20232;-80
2022/10/11 10:57:24;;;;;;;8.48;1.42;;;15.30;99.90;;;;;;5094197;28;20634;-80
2022/10/11 11:00:19;;;;;;;18.40;1.98;;;15.40;99.90;;;;;;5095996;28;20379;-80
2022/10/11 11:03:01;;;;;;;5.05;1.63;;;15.40;99.90;;;;;;5096643;28;20172;-80
2022/10/11 11:05:49;;;;;;;13.75;1.98;;;15.50;99.90;;;;;;5095733;28;20280;-80
2022/10/11 11:08:51;;;;;;;8.23;1.92;;;15.60;99.90;;;;;;5097558;28;20630;-80
2022/10/11 11:11:52;;;;;;;12.52;1.40;;;15.80;99.90;;;;;;5094622;28;20173;-85
2022/10/11 11:14:43;;;;;;;6.72;1.92;;;15.90;99.90;;;;;;5085676;28;20190;-91
2022/10/11 11:17:22;;;;;;;11.40;1.35;;;16.00;99.90;;;;;;5117993;28;20170;-92
2022/10/11 11:20:25;;;;;;;10.35;1.50;;;16.00;99.90;;;;;;5117597;28;20196;-85
2022/10/11 11:23:14;;;;;;;9.02;1.33;;;15.90;99.90;;;;;;5104722;28;20180;-92
2022/10/11 11:25:42;;;;;;;5.28;1.52;;;15.90;99.90;;;;;;5097749;28;20193;-92
2022/10/11 11:28:35;;;;;;;7.63;1.50;;;15.90;99.90;;;;;;5095879;28;20200;-80
2022/10/11 11:31:05;;;;;;;4.85;1.25;;;15.90;99.90;;;;;;5095647;28;20170;-80
2022/10/11 11:33:42;;;;;;;4.13;1.15;;;16.00;99.90;;;;;;5094969;28;20193;-80
2022/10/11 11:36:16;;;;;;;2.95;1.00;;;15.80;99.90;;;;;;5095215;28;20743;-81
2022/10/11 11:38:53;;;;;;;9.50;1.50;;;15.80;99.90;;;;;;5094962;28;20158;-81
2022/10/11 11:41:24;;;;;;;4.63;1.08;;;15.80;99.90;;;;;;5095217;28;20576;-80
2022/10/11 11:43:59;;;;;;;4.15;1.48;;;15.80;99.90;;;;;;5096856;28;20157;-93
2022/10/11 11:47:09;;;;;;;9.05;1.10;;;15.90;99.90;;;;;;5094159;28;20556;-93
2022/10/11 11:49:38;;;;;;;4.55;1.35;;;15.70;99.90;;;;;;5093206;28;20174;-94
2022/10/11 11:52:10;;;;;;;2.97;0.93;;;15.50;99.90;;;;;;5094138;28;20173;-93
2022/10/11 11:55:14;;;;;;;5.22;1.52;;;15.60;99.90;;;;;;5094944;28;20206;-95
2022/10/11 11:58:14;;;;;;;8.35;1.17;;;15.70;99.90;;;;;;5055276;28;20219;-81
2022/10/11 12:01:12;;;;;;;4.60;1.35;;;15.80;99.90;;;;;;5038951;28;20198;-82
2022/10/11 12:03:43;;;;;;;7.78;1.42;;;16.00;99.90;;;;;;5092169;28;20174;-81
2022/10/11 12:06:16;;;;;;;7.93;1.20;;;15.90;99.90;;;;;;5093200;28;20276;-80
2022/10/11 12:09:19;;;;;;;11.43;2.47;;;15.90;99.90;;;;;;5091857;28;20178;-81
2022/10/11 12:11:55;;;;;;;5.32;1.60;;;15.80;99.90;;;;;;5090448;28;20257;-81
2022/10/11 12:14:27;;;;;;;6.00;1.92;;;15.90;99.90;;;;;;5093358;28;20396;-81
2022/10/11 12:17:10;;;;;;;11.52;1.75;;;15.80;99.90;;;;;;5091455;28;20190;-81
2022/10/11 12:19:39;;;;;;;3.90;1.23;;;15.90;99.90;;;;;;5091602;28;20684;-81
2022/10/11 12:22:27;;;;;;;6.95;1.42;;;16.00;99.90;;;;;;5091685;28;20162;-80
2022/10/11 12:24:59;;;;;;;5.65;1.42;;;15.90;99.90;;;;;;5091282;28;20190;-86
2022/10/11 12:27:42;;;;;;;10.98;1.42;;;15.80;99.90;;;;;;5091627;28;20173;-81
2022/10/11 12:30:43;;;;;;;6.03;1.25;;;15.90;99.90;;;;;;5092912;28;20188;-80
2022/10/11 12:33:24;;;;;;;5.28;1.20;;;16.00;99.90;;;;;;5085799;28;20224;-80
2022/10/11 12:35:53;;;;;;;25.38;2.47;;;16.00;99.90;;;;;;5090991;28;20217;-80
2022/10/11 12:38:28;;;;;;;4.57;1.20;;;15.90;99.90;;;;;;5092533;28;20249;-80
2022/10/11 12:41:17;;;;;;;7.05;1.05;;;16.00;99.90;;;;;;5091303;28;20187;-80
2022/10/11 12:43:49;;;;;;;9.00;1.52;;;15.80;99.90;;;;;;5090305;28;20174;-80
2022/10/11 12:46:27;;;;;;;6.32;1.90;;;16.00;99.90;;;;;;5091950;28;20205;-80
2022/10/11 12:49:04;;;;;;;6.07;1.20;;;16.10;99.90;;;;;;5090752;28;20180;-80
2022/10/11 12:51:41;;;;;;;3.63;1.20;;;16.00;99.90;;;;;;5090861;28;20280;-81
2022/10/11 12:54:22;;;;;;;4.93;1.35;;;15.90;99.90;;;;;;5092551;28;20202;-81
2022/10/11 12:57:13;;;;;;;6.32;1.40;;;15.90;99.90;;;;;;5091325;28;20193;-83
2022/10/11 12:59:44;;;;;;;3.38;1.58;;;16.10;99.90;;;;;;5085569;28;20182;-81
2022/10/11 13:02:39;;;;;;;7.55;1.13;;;16.20;99.90;;;;;;5093867;28;20557;-80
2022/10/11 13:05:16;;;;;;;3.00;1.15;;;16.30;99.90;;;;;;5095587;28;20189;-80
2022/10/11 13:07:42;;;;;;;6.80;1.60;;;16.40;99.90;;;;;;5096395;28;20158;-89
2022/10/11 13:10:13;;;;;;;4.53;1.55;;;16.40;99.90;;;;;;5096270;28;20168;-80
2022/10/11 13:12:43;;;;;;;11.15;1.38;;;16.20;99.90;;;;;;5094782;28;20257;-80